Time;durP1;ratioP1;P1;durP2;ratioP2;P2;SDS_P1;SDS_P2;PMS_P1;PMS_P2;Temp;Humidity;BMP_temperature;BMP_pressure;BME280_temperature;BME280_humidity;BME280_pressure;Samples;Min_cycle;Max_cycle;Signal;HPM_P1;HPM_P2
2022/08/26 00:00:59;;;;;;;2.55;1.77;;;;;;;22.91;56.72;98641.59;4931892;29;20226;-66
2022/08/26 00:03:26;;;;;;;2.53;1.53;;;;;;;22.89;56.76;98641.00;4932329;29;20202;-66
2022/08/26 00:05:53;;;;;;;3.40;1.67;;;;;;;22.86;57.17;98636.19;4931973;29;20675;-58
2022/08/26 00:08:21;;;;;;;2.57;1.73;;;;;;;22.80;57.21;98637.78;4932077;29;20615;-58
2022/08/26 00:10:48;;;;;;;3.20;1.97;;;;;;;22.76;57.54;98641.81;4932408;29;20248;-58
2022/08/26 00:13:15;;;;;;;4.90;1.80;;;;;;;22.77;57.03;98638.97;4932113;29;20214;-58
2022/08/26 00:15:42;;;;;;;7.17;2.13;;;;;;;22.76;57.49;98628.78;4931882;29;20243;-58
2022/08/26 00:18:09;;;;;;;3.03;1.80;;;;;;;22.66;57.42;98629.19;4932088;29;20223;-58
2022/08/26 00:20:36;;;;;;;2.63;1.77;;;;;;;22.63;57.91;98632.19;4932210;29;20234;-66
2022/08/26 00:23:03;;;;;;;6.70;1.73;;;;;;;22.58;58.12;98629.38;4932269;29;20205;-67
2022/08/26 00:25:32;;;;;;;2.25;1.65;;;;;;;22.58;57.33;98631.97;4932224;29;20258;-67
2022/08/26 00:27:59;;;;;;;3.35;1.60;;;;;;;22.56;58.52;98636.56;4932087;29;20261;-66
2022/08/26 00:30:29;;;;;;;4.47;1.80;;;;;;;22.59;57.34;98630.97;4932142;29;20663;-67
2022/08/26 00:32:57;;;;;;;3.07;1.77;;;;;;;22.60;57.56;98633.38;4931960;29;20202;-67
2022/08/26 00:35:25;;;;;;;7.20;2.13;;;;;;;22.57;57.60;98630.34;4932003;29;20255;-58
2022/08/26 00:37:52;;;;;;;2.53;1.60;;;;;;;22.56;58.21;98626.16;4931830;29;20213;-67
2022/08/26 00:40:28;;;;;;;4.87;1.90;;;;;;;22.51;58.67;98624.13;4931994;29;20260;-58
2022/08/26 00:42:56;;;;;;;4.13;2.00;;;;;;;22.45;58.77;98624.13;4931904;29;20218;-58
2022/08/26 00:45:23;;;;;;;3.40;1.57;;;;;;;22.40;58.51;98626.53;4932165;29;20235;-66
2022/08/26 00:47:54;;;;;;;2.43;1.70;;;;;;;22.34;58.73;98628.94;4931856;29;20229;-66
2022/08/26 00:50:25;;;;;;;3.30;1.90;;;;;;;22.35;58.07;98620.13;4932002;29;20614;-67
2022/08/26 00:52:54;;;;;;;5.13;2.00;;;;;;;22.34;58.15;98623.72;4931748;29;20726;-58
2022/08/26 00:55:26;;;;;;;2.60;1.50;;;;;;;22.31;57.81;98623.31;4931858;29;20234;-58
2022/08/26 00:57:54;;;;;;;4.87;1.90;;;;;;;22.30;58.22;98627.72;4931799;29;20205;-67
2022/08/26 01:00:26;;;;;;;2.47;1.57;;;;;;;22.34;58.09;98622.91;4931645;29;20716;-66
2022/08/26 01:02:54;;;;;;;4.80;1.80;;;;;;;22.33;58.25;98616.91;4932015;29;20202;-66
2022/08/26 01:05:22;;;;;;;2.40;1.60;;;;;;;22.28;58.63;98627.13;4931602;29;20230;-66
2022/08/26 01:07:49;;;;;;;3.87;1.87;;;;;;;22.29;58.78;98618.31;4931308;29;20207;-66
2022/08/26 01:10:19;;;;;;;2.50;1.60;;;;;;;22.28;58.64;98623.69;4931874;29;20226;-67
2022/08/26 01:12:51;;;;;;;2.40;1.53;;;;;;;22.22;58.78;98619.28;4934249;29;20233;-66
2022/08/26 01:15:24;;;;;;;2.97;1.60;;;;;;;22.17;58.49;98622.50;4934767;29;20235;-66
2022/08/26 01:17:51;;;;;;;3.50;1.80;;;;;;;22.18;58.27;98629.28;4935022;29;20199;-66
2022/08/26 01:20:27;;;;;;;1.70;1.27;;;;;;;22.11;58.82;98618.03;4935208;29;20225;-58
2022/08/26 01:22:57;;;;;;;6.07;2.00;;;;;;;22.09;58.52;98614.81;4934930;29;20200;-58
2022/08/26 01:25:25;;;;;;;4.60;1.67;;;;;;;22.11;58.47;98618.03;4934968;29;20322;-67
2022/08/26 01:27:56;;;;;;;4.23;2.10;;;;;;;22.09;59.06;98620.03;4934689;29;20215;-66
2022/08/26 01:30:23;;;;;;;3.37;1.57;;;;;;;22.01;59.29;98618.41;4934952;29;20611;-67
2022/08/26 01:32:51;;;;;;;4.27;1.80;;;;;;;22.06;58.95;98620.44;4934987;29;20216;-59
2022/08/26 01:35:19;;;;;;;4.00;1.67;;;;;;;22.03;58.61;98620.81;4934445;29;20245;-67
2022/08/26 01:37:49;;;;;;;4.27;1.70;;;;;;;22.03;59.12;98626.03;4934684;29;20216;-66
2022/08/26 01:40:22;;;;;;;4.73;1.80;;;;;;;22.08;58.56;98621.84;4934964;29;20235;-67
2022/08/26 01:42:49;;;;;;;3.07;1.80;;;;;;;22.00;58.74;98621.22;4934513;29;20232;-59
2022/08/26 01:45:20;;;;;;;2.90;1.70;;;;;;;22.00;58.34;98616.00;4934310;29;20235;-58
2022/08/26 01:47:49;;;;;;;3.87;1.97;;;;;;;22.01;59.50;98626.22;4934583;29;20213;-59
2022/08/26 01:50:20;;;;;;;3.53;1.73;;;;;;;21.98;59.79;98631.00;4934281;29;20226;-58
2022/08/26 01:52:48;;;;;;;2.17;1.43;;;;;;;21.99;58.50;98624.78;4934485;29;20464;-58
2022/08/26 01:55:19;;;;;;;3.20;1.87;;;;;;;22.02;58.47;98629.59;4934372;29;20226;-58
2022/08/26 01:57:49;;;;;;;4.00;1.67;;;;;;;22.04;59.14;98635.44;4934338;29;20206;-59
2022/08/26 02:00:17;;;;;;;1.93;1.40;;;;;;;22.01;58.09;98628.00;4934351;29;20643;-66
2022/08/26 02:02:47;;;;;;;2.77;1.77;;;;;;;21.98;58.39;98628.41;4934204;29;20601;-66
2022/08/26 02:05:18;;;;;;;3.10;1.80;;;;;;;21.95;58.42;98634.00;4934058;29;20244;-67
2022/08/26 02:07:46;;;;;;;2.67;1.50;;;;;;;22.06;57.79;98636.06;4934223;29;20218;-66
2022/08/26 02:10:13;;;;;;;2.53;1.60;;;;;;;22.07;58.40;98632.44;4934296;29;20230;-66
2022/08/26 02:12:41;;;;;;;4.97;1.70;;;;;;;22.00;58.87;98631.63;4934180;29;20209;-67
2022/08/26 02:15:12;;;;;;;5.70;2.00;;;;;;;22.00;59.09;98636.84;4934082;29;20419;-67
2022/08/26 02:17:44;;;;;;;2.70;1.50;;;;;;;21.90;60.15;98637.19;4934037;29;20236;-66
2022/08/26 02:20:13;;;;;;;3.63;1.50;;;;;;;21.91;60.47;98639.59;4934166;29;20254;-67
2022/08/26 02:22:41;;;;;;;2.90;1.63;;;;;;;21.90;60.31;98635.41;4933636;29;20197;-67
2022/08/26 02:25:13;;;;;;;3.43;1.60;;;;;;;21.90;59.60;98627.59;4933749;29;20224;-67
2022/08/26 02:27:41;;;;;;;2.83;1.70;;;;;;;21.83;59.44;98631.97;4933857;29;20209;-67
2022/08/26 02:30:12;;;;;;;3.97;1.77;;;;;;;21.89;58.60;98631.19;4933841;29;20221;-67
2022/08/26 02:32:39;;;;;;;4.23;1.80;;;;;;;21.88;58.39;98628.78;4933560;29;20198;-67
2022/08/26 02:35:07;;;;;;;3.07;1.70;;;;;;;21.83;58.35;98634.56;4933556;29;20905;-67
2022/08/26 02:37:34;;;;;;;4.13;2.10;;;;;;;21.83;57.71;98626.75;4933514;29;20732;-67
2022/08/26 02:40:01;;;;;;;2.63;1.70;;;;;;;21.86;58.05;98626.34;4933664;29;20248;-67
2022/08/26 02:42:28;;;;;;;4.70;2.00;;;;;;;21.85;57.70;98623.97;4933488;29;20211;-66
2022/08/26 02:44:56;;;;;;;3.30;1.80;;;;;;;21.81;58.26;98626.13;4933709;29;20225;-67
2022/08/26 02:47:24;;;;;;;2.07;1.63;;;;;;;21.82;58.06;98629.56;4933380;29;20220;-66
2022/08/26 02:49:51;;;;;;;3.93;1.73;;;;;;;21.80;58.60;98632.34;4933348;29;20791;-66
2022/08/26 02:52:18;;;;;;;2.47;1.83;;;;;;;21.76;58.53;98636.34;4933150;29;20203;-66
2022/08/26 02:54:45;;;;;;;6.30;1.60;;;;;;;21.78;58.54;98623.91;4933302;29;20715;-67
2022/08/26 02:57:12;;;;;;;2.30;1.60;;;;;;;21.81;58.29;98633.16;4933129;29;20312;-66
2022/08/26 02:59:39;;;;;;;2.70;1.83;;;;;;;21.76;59.22;98628.53;4933158;29;20213;-67
2022/08/26 03:02:09;;;;;;;6.03;1.70;;;;;;;21.73;59.00;98626.31;4933021;29;20206;-66
2022/08/26 03:04:36;;;;;;;3.33;1.97;;;;;;;21.68;59.76;98628.69;4933213;29;20203;-67
2022/08/26 03:07:03;;;;;;;2.93;1.80;;;;;;;21.70;58.87;98634.53;4933061;29;20317;-66
2022/08/26 03:09:30;;;;;;;2.20;1.50;;;;;;;21.65;59.01;98634.28;4933073;29;20588;-67
2022/08/26 03:11:58;;;;;;;3.80;1.80;;;;;;;21.62;59.02;98639.88;4933031;29;20208;-66
2022/08/26 03:14:25;;;;;;;2.60;1.80;;;;;;;21.59;59.32;98641.06;4933063;29;20207;-67
2022/08/26 03:16:53;;;;;;;2.73;1.67;;;;;;;21.57;59.66;98647.44;4932845;29;20243;-67
2022/08/26 03:19:23;;;;;;;4.60;1.83;;;;;;;21.59;59.04;98645.47;4932655;29;20217;-66
2022/08/26 03:21:51;;;;;;;3.83;1.80;;;;;;;21.57;59.24;98640.44;4932792;29;20226;-67
2022/08/26 03:24:19;;;;;;;2.90;1.70;;;;;;;21.51;60.14;98648.22;4932814;29;20298;-67
2022/08/26 03:26:47;;;;;;;6.30;1.90;;;;;;;21.42;60.84;98650.97;4932660;29;20231;-66
2022/08/26 03:32:04;;;;;;;2.83;1.73;;;;;;;21.40;62.00;98647.75;4895474;29;20212;-67
2022/08/26 03:34:32;;;;;;;5.37;1.90;;;;;;;21.39;61.54;98659.16;4932063;29;20204;-66
2022/08/26 03:36:59;;;;;;;2.67;1.80;;;;;;;21.38;61.63;98654.13;4932413;29;20729;-67
2022/08/26 03:39:26;;;;;;;5.17;1.97;;;;;;;21.37;62.46;98655.94;4932518;29;20575;-66
2022/08/26 03:41:53;;;;;;;2.10;1.60;;;;;;;21.36;61.99;98662.13;4932867;29;20228;-67
2022/08/26 03:44:21;;;;;;;3.50;1.93;;;;;;;21.37;61.97;98657.75;4932534;29;20265;-66
2022/08/26 03:46:48;;;;;;;3.60;1.80;;;;;;;21.36;61.98;98664.75;4932356;29;20621;-67
2022/08/26 03:49:15;;;;;;;2.70;1.70;;;;;;;21.31;62.06;98661.88;4932317;29;20210;-67
2022/08/26 03:51:43;;;;;;;1.80;1.40;;;;;;;21.30;62.65;98662.88;4932254;29;20745;-66
2022/08/26 03:54:10;;;;;;;6.13;2.20;;;;;;;21.29;63.34;98669.06;4932261;29;20231;-67
2022/08/26 03:56:37;;;;;;;2.97;1.80;;;;;;;21.29;63.89;98676.84;4932250;29;20241;-67
2022/08/26 03:59:05;;;;;;;3.00;1.90;;;;;;;21.26;63.78;98672.03;4932057;29;20765;-67
2022/08/26 04:01:32;;;;;;;2.40;1.50;;;;;;;21.25;63.91;98671.22;4932295;29;20227;-67
2022/08/26 04:04:00;;;;;;;3.20;1.90;;;;;;;21.22;64.86;98676.81;4932304;29;20206;-66
2022/08/26 04:06:30;;;;;;;2.80;1.90;;;;;;;21.15;64.48;98670.78;4932197;29;20236;-67
2022/08/26 04:09:00;;;;;;;3.13;1.77;;;;;;;21.14;64.38;98671.75;4932239;29;20211;-67
2022/08/26 04:11:30;;;;;;;3.73;1.90;;;;;;;21.10;64.76;98672.34;4932097;29;20232;-66
2022/08/26 04:13:59;;;;;;;3.37;1.80;;;;;;;21.08;65.32;98669.09;4932164;29;20211;-67
2022/08/26 04:16:28;;;;;;;5.53;2.00;;;;;;;21.05;65.37;98670.28;4931989;29;20237;-66
2022/08/26 04:18:55;;;;;;;4.23;2.17;;;;;;;20.98;65.30;98670.25;4932082;29;20234;-67
2022/08/26 04:21:22;;;;;;;3.23;1.90;;;;;;;20.98;65.59;98675.44;4931903;29;20226;-66
2022/08/26 04:23:49;;;;;;;3.87;1.80;;;;;;;20.98;66.53;98680.63;4931962;29;20211;-66
2022/08/26 04:26:20;;;;;;;3.67;1.90;;;;;;;20.97;67.62;98673.84;4931776;29;20285;-67
2022/08/26 04:28:47;;;;;;;2.53;1.90;;;;;;;20.94;67.79;98674.22;4931923;29;20408;-67
2022/08/26 04:31:16;;;;;;;3.17;1.97;;;;;;;20.94;69.10;98676.00;4931849;29;20231;-66
2022/08/26 04:33:43;;;;;;;3.67;2.30;;;;;;;20.92;68.65;98681.38;4931913;29;20206;-67
2022/08/26 04:36:10;;;;;;;2.73;2.03;;;;;;;20.92;67.98;98681.38;4931721;29;20232;-67
2022/08/26 04:38:37;;;;;;;5.87;2.00;;;;;;;20.83;66.33;98677.31;4931833;29;20216;-65
2022/08/26 04:41:07;;;;;;;4.43;1.70;;;;;;;20.87;66.69;98678.53;4931940;29;20225;-67
2022/08/26 04:43:36;;;;;;;3.20;1.57;;;;;;;20.92;67.62;98670.19;4931726;29;20573;-67
2022/08/26 04:46:05;;;;;;;5.00;1.83;;;;;;;20.97;67.71;98678.22;4933969;29;20236;-67
2022/08/26 04:48:32;;;;;;;3.20;1.90;;;;;;;21.00;68.51;98672.63;4935385;29;20688;-66
2022/08/26 04:51:00;;;;;;;3.30;1.73;;;;;;;21.03;68.27;98670.50;4935356;29;20226;-66
2022/08/26 04:53:28;;;;;;;5.70;2.13;;;;;;;21.06;69.29;98671.09;4935595;29;20220;-67
2022/08/26 04:55:55;;;;;;;2.73;1.90;;;;;;;21.11;69.88;98679.13;4935497;29;20223;-66
2022/08/26 04:58:24;;;;;;;3.90;1.73;;;;;;;21.15;70.79;98675.19;4935217;29;20238;-67
2022/08/26 05:00:55;;;;;;;3.57;2.23;;;;;;;21.17;70.83;98673.16;4935315;29;20322;-66
2022/08/26 05:03:23;;;;;;;4.13;1.93;;;;;;;21.24;71.29;98676.63;4935296;29;20209;-66
2022/08/26 05:05:51;;;;;;;2.77;1.83;;;;;;;21.27;71.53;98678.84;4935319;29;20242;-66
2022/08/26 05:08:20;;;;;;;4.13;1.80;;;;;;;21.35;70.31;98676.13;4935438;29;20206;-66
2022/08/26 05:10:50;;;;;;;3.17;1.73;;;;;;;21.45;70.74;98683.59;4935059;29;20237;-67
2022/08/26 05:13:19;;;;;;;3.47;1.77;;;;;;;21.48;71.14;98668.41;4935163;29;20206;-66
2022/08/26 05:15:47;;;;;;;2.37;1.87;;;;;;;21.59;72.01;98674.09;4935256;29;20227;-66
2022/08/26 05:18:16;;;;;;;4.57;2.00;;;;;;;21.65;71.91;98673.31;4934877;29;20251;-66
2022/08/26 05:20:46;;;;;;;2.87;1.80;;;;;;;21.71;71.51;98667.34;4935254;29;20228;-67
2022/08/26 05:23:13;;;;;;;4.13;1.80;;;;;;;21.78;72.65;98667.38;4934899;29;20220;-65
2022/08/26 05:25:42;;;;;;;2.60;1.80;;;;;;;21.86;72.28;98673.22;4934841;29;20226;-67
2022/08/26 05:28:09;;;;;;;3.73;2.10;;;;;;;21.93;69.46;98674.06;4934817;29;20411;-67
2022/08/26 05:30:37;;;;;;;2.97;1.90;;;;;;;22.00;70.81;98675.88;4935117;29;20225;-66
2022/08/26 05:33:04;;;;;;;3.10;1.80;;;;;;;22.25;72.95;98677.00;4934546;29;20199;-67
2022/08/26 05:35:33;;;;;;;5.47;2.00;;;;;;;22.45;72.23;98679.63;4934934;29;20237;-66
2022/08/26 05:38:00;;;;;;;2.97;2.10;;;;;;;22.80;74.98;98679.47;4934544;29;20248;-67
2022/08/26 05:40:27;;;;;;;5.37;2.17;;;;;;;23.11;75.12;98676.31;4934833;29;20232;-66
2022/08/26 05:42:55;;;;;;;7.68;3.00;;;;;;;23.37;66.67;98685.91;4934541;29;20213;-66
2022/08/26 05:45:25;;;;;;;5.15;2.35;;;;;;;23.70;70.07;98685.06;4934745;29;20625;-66
2022/08/26 05:47:52;;;;;;;4.43;2.42;;;;;;;23.97;66.03;98682.34;4934538;29;20700;-66
2022/08/26 05:50:21;;;;;;;3.28;2.20;;;;;;;24.15;64.34;98685.91;4934622;29;20230;-66
2022/08/26 05:52:50;;;;;;;6.38;2.30;;;;;;;24.37;62.48;98680.34;4934827;29;20669;-66
2022/08/26 05:55:18;;;;;;;3.63;2.20;;;;;;;24.53;61.22;98673.88;4934453;29;20245;-66
2022/08/26 05:57:45;;;;;;;5.22;2.20;;;;;;;24.76;60.75;98683.78;4933482;29;20627;-66
2022/08/26 06:00:15;;;;;;;4.70;2.08;;;;;;;24.97;63.25;98680.78;4934166;29;20724;-66
2022/08/26 06:02:41;;;;;;;4.05;2.38;;;;;;;25.22;56.61;98687.84;4934274;29;20254;-66
2022/08/26 06:05:09;;;;;;;3.15;1.80;;;;;;;25.41;49.21;98683.44;4934100;29;20223;-66
2022/08/26 06:10:26;;;;;;;3.00;1.48;;;;;;;25.92;48.25;98679.69;4923798;29;20223;-66
2022/08/26 06:12:53;;;;;;;2.80;1.52;;;;;;;26.13;47.47;98688.91;4934146;29;20243;-67
2022/08/26 06:15:20;;;;;;;2.35;1.65;;;;;;;26.32;46.91;98692.28;4934014;29;20242;-66
2022/08/26 06:17:47;;;;;;;2.10;1.40;;;;;;;26.53;46.84;98696.25;4933985;29;20234;-66
2022/08/26 06:20:14;;;;;;;2.58;1.58;;;;;;;26.75;49.24;98692.06;4933903;29;20227;-66
2022/08/26 06:28:10;;;;;;;4.07;1.95;;;;;;;27.30;50.30;98699.69;4933559;29;20582;-66
2022/08/26 06:30:40;;;;;;;4.25;1.70;;;;;;;27.52;51.67;98707.00;4933833;29;20242;-66
2022/08/26 06:33:07;;;;;;;2.15;1.75;;;;;;;27.58;51.64;98711.31;4933565;29;20211;-66
2022/08/26 06:35:38;;;;;;;4.15;1.92;;;;;;;27.68;51.07;98705.47;4933571;29;20230;-66
2022/08/26 06:38:05;;;;;;;3.33;2.25;;;;;;;27.99;53.62;98706.91;4933336;29;20283;-66
2022/08/26 06:40:35;;;;;;;5.00;2.22;;;;;;;28.18;49.19;98705.69;4933851;29;20232;-66
2022/08/26 06:43:02;;;;;;;3.55;1.95;;;;;;;28.35;48.77;98710.22;4933418;29;20207;-66
2022/08/26 06:45:28;;;;;;;2.97;1.98;;;;;;;28.29;49.45;98711.94;4933708;29;20228;-64
2022/08/26 06:47:55;;;;;;;3.38;2.10;;;;;;;28.61;51.49;98720.16;4933695;29;20693;-65
2022/08/26 06:50:22;;;;;;;4.20;2.08;;;;;;;28.88;49.15;98714.28;4933662;29;20223;-65
2022/08/26 06:52:49;;;;;;;6.38;2.17;;;;;;;29.20;49.43;98726.91;4933385;29;20204;-65
2022/08/26 06:55:16;;;;;;;2.30;1.80;;;;;;;29.31;45.54;98723.38;4933184;29;20484;-65
2022/08/26 06:57:44;;;;;;;2.67;1.80;;;;;;;29.53;45.70;98726.88;4933180;29;20721;-65
2022/08/26 07:00:12;;;;;;;5.47;2.00;;;;;;;29.80;48.06;98726.19;4933376;29;20419;-65
2022/08/26 07:02:38;;;;;;;3.53;1.90;;;;;;;29.80;48.08;98730.66;4933235;29;20207;-58
2022/08/26 07:05:06;;;;;;;3.05;1.80;;;;;;;29.61;43.31;98723.00;4933109;29;20235;-58
2022/08/26 07:07:33;;;;;;;3.53;2.00;;;;;;;29.68;47.09;98728.94;4933407;29;20208;-59
2022/08/26 07:10:00;;;;;;;4.78;1.95;;;;;;;29.72;46.10;98730.03;4932970;29;20227;-59
2022/08/26 07:12:27;;;;;;;2.10;1.80;;;;;;;29.70;46.42;98731.31;4933029;29;20235;-58
2022/08/26 07:14:55;;;;;;;2.67;1.90;;;;;;;29.81;45.72;98717.22;4933277;29;20223;-60
2022/08/26 07:17:22;;;;;;;6.22;1.98;;;;;;;29.95;43.66;98722.94;4932801;29;20243;-60
2022/08/26 07:19:49;;;;;;;3.25;2.00;;;;;;;30.03;42.67;98719.06;4932718;29;20200;-60
2022/08/26 07:22:17;;;;;;;3.10;2.03;;;;;;;30.16;41.52;98724.75;4932735;29;20209;-60
2022/08/26 07:24:44;;;;;;;4.25;1.98;;;;;;;30.06;37.95;98724.66;4932991;29;20742;-60
2022/08/26 07:27:13;;;;;;;2.47;1.70;;;;;;;29.99;37.96;98724.84;4932688;29;20199;-60
2022/08/26 07:29:41;;;;;;;3.15;1.67;;;;;;;30.07;40.97;98720.94;4932613;29;20200;-59
2022/08/26 07:32:12;;;;;;;3.42;1.83;;;;;;;30.31;36.46;98721.53;4932568;29;20214;-59
2022/08/26 07:34:39;;;;;;;2.85;1.90;;;;;;;30.66;39.15;98717.59;4932768;29;20207;-60
2022/08/26 07:37:07;;;;;;;2.63;1.60;;;;;;;30.72;36.72;98711.34;4932424;29;20204;-60
2022/08/26 07:39:33;;;;;;;3.30;1.80;;;;;;;30.74;35.26;98714.50;4932582;29;20207;-60
2022/08/26 07:42:00;;;;;;;3.10;1.83;;;;;;;30.98;37.65;98714.19;4932704;29;20630;-60
2022/08/26 07:44:28;;;;;;;2.00;1.67;;;;;;;31.14;36.07;98718.53;4932649;29;20617;-60
2022/08/26 07:46:55;;;;;;;2.83;1.75;;;;;;;31.09;35.51;98710.56;4932406;29;20735;-60
2022/08/26 07:49:25;;;;;;;1.55;1.40;;;;;;;31.37;36.47;98711.31;4932211;29;20199;-60
2022/08/26 07:51:53;;;;;;;1.70;1.50;;;;;;;31.51;34.49;98707.94;4932651;29;20258;-60
2022/08/26 07:54:20;;;;;;;2.13;1.58;;;;;;;30.69;33.83;98701.28;4932470;29;20303;-60
2022/08/26 07:56:47;;;;;;;4.15;1.83;;;;;;;30.26;35.59;98697.72;4932478;29;20227;-67
2022/08/26 07:59:14;;;;;;;2.55;1.70;;;;;;;30.69;40.63;98696.00;4932313;29;20250;-67
2022/08/26 08:01:41;;;;;;;3.90;1.70;;;;;;;30.79;35.44;98698.75;4932235;29;20712;-67
2022/08/26 08:04:08;;;;;;;12.90;7.20;;;;;;;30.59;36.55;98701.19;4932032;29;20673;-60
2022/08/26 08:06:37;;;;;;;3.58;2.28;;;;;;;31.08;37.22;98695.78;4932168;29;20230;-60
2022/08/26 08:09:05;;;;;;;2.55;2.05;;;;;;;31.46;38.44;98699.19;4932350;29;20207;-67
2022/08/26 08:11:32;;;;;;;3.38;1.65;;;;;;;31.77;36.08;98700.94;4932399;29;20231;-60
2022/08/26 08:14:00;;;;;;;2.63;1.73;;;;;;;31.91;36.19;98696.00;4932192;29;20222;-60
2022/08/26 08:16:28;;;;;;;2.58;1.83;;;;;;;31.83;35.78;98682.44;4932356;29;20234;-60
2022/08/26 08:18:55;;;;;;;2.03;1.80;;;;;;;31.82;36.61;98692.22;4932139;29;20235;-60
2022/08/26 08:21:23;;;;;;;3.17;2.10;;;;;;;31.87;34.81;98686.16;4936791;29;20232;-60
2022/08/26 08:23:52;;;;;;;1.88;1.70;;;;;;;32.20;36.95;98685.75;4938566;29;20592;-67
2022/08/26 08:26:19;;;;;;;2.38;1.83;;;;;;;32.30;34.01;98681.53;4938690;29;20239;-60
2022/08/26 08:28:46;;;;;;;2.88;1.73;;;;;;;32.65;38.70;98689.50;4938473;29;20211;-67
2022/08/26 08:31:20;;;;;;;2.95;1.60;;;;;;;32.82;36.20;98688.44;4938386;29;20643;-60
2022/08/26 08:33:47;;;;;;;2.45;1.80;;;;;;;32.83;37.79;98684.72;4938509;29;20278;-60
2022/08/26 08:36:15;;;;;;;2.47;1.60;;;;;;;32.85;40.55;98682.63;4938423;29;20237;-60
2022/08/26 08:38:43;;;;;;;3.65;1.70;;;;;;;32.95;35.44;98681.81;4938130;29;20245;-66
2022/08/26 08:41:26;;;;;;;2.38;1.70;;;;;;;32.89;32.10;98683.66;4938477;29;20737;-67
2022/08/26 08:43:55;;;;;;;2.33;1.77;;;;;;;32.99;33.72;98678.41;4938423;29;20590;-67
2022/08/26 08:46:23;;;;;;;2.25;1.70;;;;;;;32.74;31.98;98681.03;4938442;29;20301;-67
2022/08/26 08:48:55;;;;;;;2.97;1.70;;;;;;;32.75;31.39;98672.03;4938426;29;20207;-67
2022/08/26 08:51:35;;;;;;;2.03;1.58;;;;;;;32.53;31.64;98675.75;4938209;29;20223;-67
2022/08/26 08:54:02;;;;;;;1.85;1.50;;;;;;;32.74;36.02;98675.75;4938002;29;20207;-68
2022/08/26 08:56:35;;;;;;;2.10;1.70;;;;;;;33.13;35.62;98679.44;4938565;29;20223;-67
2022/08/26 08:59:12;;;;;;;2.60;1.80;;;;;;;33.06;34.29;98668.31;4937876;29;20246;-59
2022/08/26 09:01:53;;;;;;;3.03;1.85;;;;;;;33.18;34.99;98672.53;4938204;29;20518;-59
2022/08/26 09:04:43;;;;;;;2.50;1.98;;;;;;;33.13;36.86;98674.13;4938133;29;20215;-59
2022/08/26 09:07:17;;;;;;;3.78;2.17;;;;;;;33.38;35.14;98669.03;4937952;29;20644;-59
2022/08/26 09:09:46;;;;;;;4.50;1.95;;;;;;;33.49;33.43;98663.41;4938112;29;20203;-59
2022/08/26 09:12:20;;;;;;;2.42;1.65;;;;;;;33.57;34.60;98668.19;4937919;29;20208;-59
2022/08/26 09:14:48;;;;;;;2.50;1.80;;;;;;;33.33;31.58;98664.50;4937889;29;20209;-59
2022/08/26 09:17:29;;;;;;;2.22;1.77;;;;;;;33.27;32.96;98668.25;4938073;29;20235;-61
2022/08/26 09:20:08;;;;;;;2.17;1.58;;;;;;;33.35;34.56;98665.03;4937911;29;20258;-59
2022/08/26 09:22:36;;;;;;;2.00;1.80;;;;;;;33.48;35.05;98667.13;4937901;29;20231;-59
2022/08/26 09:25:06;;;;;;;3.75;1.80;;;;;;;33.64;34.34;98662.56;4938153;29;20223;-68
2022/08/26 09:27:41;;;;;;;2.60;1.90;;;;;;;33.67;31.86;98661.25;4938206;29;20203;-68
2022/08/26 09:30:09;;;;;;;2.53;1.90;;;;;;;33.77;36.08;98653.22;4937891;29;20227;-68
2022/08/26 09:32:36;;;;;;;4.88;1.98;;;;;;;32.87;31.19;98654.81;4934631;29;20211;-67
2022/08/26 09:35:07;;;;;;;3.00;1.90;;;;;;;33.63;36.46;98655.69;4934769;29;20227;-67
2022/08/26 09:37:40;;;;;;;3.33;2.08;;;;;;;33.53;31.62;98656.53;4934618;29;20254;-59
2022/08/26 09:40:22;;;;;;;2.20;1.80;;;;;;;33.16;35.02;98656.09;4934844;29;20230;-59
2022/08/26 09:43:10;;;;;;;3.35;1.75;;;;;;;33.27;34.20;98653.13;4934880;29;20259;-59
2022/08/26 09:45:38;;;;;;;2.50;2.00;;;;;;;33.62;34.78;98654.09;4934655;29;20238;-59
2022/08/26 09:48:06;;;;;;;2.58;1.90;;;;;;;33.20;36.42;98646.56;4934597;29;20231;-58
2022/08/26 09:50:37;;;;;;;2.78;1.80;;;;;;;32.79;32.70;98644.75;4935028;29;20656;-60
2022/08/26 09:53:07;;;;;;;3.70;1.90;;;;;;;33.38;36.97;98648.59;4934529;29;20207;-60
2022/08/26 09:55:35;;;;;;;2.50;1.90;;;;;;;33.40;35.93;98641.19;4934810;29;20223;-60
2022/08/26 09:58:03;;;;;;;2.33;1.92;;;;;;;33.73;32.64;98639.72;4934244;29;20712;-58
2022/08/26 10:00:33;;;;;;;3.22;1.90;;;;;;;33.91;36.39;98640.16;4934343;29;20658;-58
2022/08/26 10:03:02;;;;;;;3.63;2.03;;;;;;;34.19;34.61;98642.13;4934728;29;20587;-60
2022/08/26 10:05:33;;;;;;;2.30;1.63;;;;;;;34.29;34.95;98641.25;4934511;29;20235;-60
2022/08/26 10:08:08;;;;;;;2.30;1.90;;;;;;;34.58;37.09;98632.53;4934357;29;20648;-60
2022/08/26 10:10:40;;;;;;;2.38;2.00;;;;;;;34.53;35.12;98632.56;4934287;29;20773;-60
2022/08/26 10:13:13;;;;;;;5.05;2.13;;;;;;;34.02;34.92;98631.84;4934170;29;20206;-58
2022/08/26 10:15:45;;;;;;;2.40;1.70;;;;;;;33.73;34.92;98623.03;4934203;29;20231;-59
2022/08/26 10:18:17;;;;;;;3.67;1.90;;;;;;;34.06;33.19;98626.03;4933918;29;20243;-59
2022/08/26 10:20:53;;;;;;;2.55;1.90;;;;;;;34.29;33.51;98619.22;4934078;29;20228;-59
2022/08/26 10:23:24;;;;;;;3.65;2.15;;;;;;;34.45;33.13;98613.50;4934098;29;20431;-59
2022/08/26 10:25:54;;;;;;;3.50;1.92;;;;;;;34.37;33.12;98622.06;4933912;29;20255;-59
2022/08/26 10:28:30;;;;;;;2.40;2.10;;;;;;;34.64;34.61;98610.97;4933724;29;20211;-60
2022/08/26 10:31:01;;;;;;;2.53;1.90;;;;;;;34.64;34.30;98610.19;4934097;29;20245;-60
2022/08/26 10:33:28;;;;;;;2.90;1.85;;;;;;;34.75;34.98;98611.66;4933629;29;20728;-60
2022/08/26 10:35:58;;;;;;;4.15;2.03;;;;;;;34.19;30.55;98609.50;4933937;29;20235;-60
2022/08/26 10:38:33;;;;;;;2.83;2.00;;;;;;;34.40;32.26;98605.59;4933570;29;20242;-59
2022/08/26 10:41:04;;;;;;;3.67;2.28;;;;;;;34.66;32.81;98606.19;4933749;29;20227;-59
2022/08/26 10:43:39;;;;;;;3.33;1.95;;;;;;;34.76;32.55;98602.63;4933137;29;20287;-60
2022/08/26 10:46:13;;;;;;;3.03;1.95;;;;;;;34.99;32.48;98609.00;4933397;29;20219;-60
2022/08/26 10:48:47;;;;;;;3.65;1.88;;;;;;;35.06;29.86;98606.06;4933385;29;20203;-60
2022/08/26 10:51:19;;;;;;;2.63;1.65;;;;;;;35.26;31.28;98603.16;4933806;29;20234;-60
2022/08/26 10:53:55;;;;;;;3.85;1.92;;;;;;;35.28;31.96;98603.66;4933682;29;20203;-67
2022/08/26 10:56:32;;;;;;;2.78;2.00;;;;;;;35.38;33.12;98600.88;4932815;29;20282;-67
2022/08/26 10:59:09;;;;;;;2.47;1.95;;;;;;;35.60;32.83;98599.56;4933363;29;20235;-67
2022/08/26 11:01:45;;;;;;;4.80;2.10;;;;;;;35.42;29.69;98602.97;4933310;29;20747;-67
2022/08/26 11:04:50;;;;;;;2.35;1.92;;;;;;;35.06;32.18;98592.78;4933106;29;20200;-59
2022/08/26 11:07:39;;;;;;;4.47;2.00;;;;;;;34.37;30.47;98590.22;4922165;29;20222;-60
2022/08/26 11:10:32;;;;;;;4.90;2.13;;;;;;;34.66;30.01;98587.59;4933075;29;20227;-67
2022/08/26 11:13:00;;;;;;;2.40;1.95;;;;;;;34.80;31.87;98586.94;4933136;29;20245;-67
2022/08/26 11:16:09;;;;;;;7.95;2.20;;;;;;;35.07;29.45;98586.38;4932918;29;20709;-67
2022/08/26 11:18:40;;;;;;;3.00;2.08;;;;;;;35.41;30.99;98585.44;4932846;29;20219;-60
2022/08/26 11:21:45;;;;;;;5.22;2.40;;;;;;;35.07;29.95;98586.38;4933249;29;20226;-60
2022/08/26 11:25:01;;;;;;;2.45;1.92;;;;;;;35.16;27.92;98579.34;4933032;29;20207;-60
2022/08/26 11:27:58;;;;;;;2.67;2.10;;;;;;;34.79;31.47;98583.50;4932992;29;20208;-67
2022/08/26 11:30:47;;;;;;;3.53;2.08;;;;;;;35.10;32.30;98577.84;4933034;29;20230;-67
2022/08/26 11:33:48;;;;;;;7.97;2.20;;;;;;;35.45;31.68;98575.81;4932622;29;20211;-67
2022/08/26 11:36:58;;;;;;;3.08;2.25;;;;;;;35.33;29.60;98574.34;4932549;29;20239;-67
2022/08/26 11:39:31;;;;;;;3.38;1.92;;;;;;;34.94;30.27;98561.28;4932474;29;20235;-67
2022/08/26 11:42:03;;;;;;;2.67;1.90;;;;;;;35.08;28.85;98566.69;4933000;29;20204;-67
2022/08/26 11:44:38;;;;;;;2.85;1.95;;;;;;;35.41;32.98;98561.53;4932433;29;20697;-67
2022/08/26 11:47:09;;;;;;;2.47;1.80;;;;;;;35.65;29.63;98570.22;4932555;29;20265;-67
2022/08/26 11:49:38;;;;;;;2.88;1.83;;;;;;;35.44;30.04;98558.28;4932304;29;20233;-67
2022/08/26 11:52:10;;;;;;;3.75;2.30;;;;;;;35.15;31.86;98564.50;4932460;29;20284;-60
2022/08/26 11:54:37;;;;;;;4.13;2.10;;;;;;;34.98;30.00;98556.97;4931993;29;20673;-67
2022/08/26 11:57:08;;;;;;;3.08;2.10;;;;;;;35.12;30.03;98557.09;4932162;29;20207;-66
2022/08/26 11:59:39;;;;;;;2.58;2.08;;;;;;;34.95;32.43;98554.88;4932451;29;20231;-67